createdAt,value
2019-01-26T00:05:57.908Z,99978.88
2019-01-26T00:08:27.205Z,99973.72
2019-01-26T00:13:50.210Z,99964.69
2019-01-26T00:16:21.166Z,99974.62
2019-01-26T00:18:50.754Z,99970.74
2019-01-26T00:21:20.180Z,99970.31
2019-01-26T00:23:49.580Z,99912.09
2019-01-26T00:26:19.039Z,99964.69
2019-01-26T00:28:48.366Z,99957.83
2019-01-26T00:31:17.963Z,99958.70
2019-01-26T00:33:47.244Z,99953.09
2019-01-26T00:36:16.813Z,99949.67
2019-01-26T00:38:46.169Z,99948.79
2019-01-26T00:41:15.804Z,99947.09
2019-01-26T00:43:45.125Z,99938.91
2019-01-26T00:46:15.135Z,99934.20
2019-01-26T00:48:44.414Z,99929.48
2019-01-26T00:51:17.260Z,99935.94
2019-01-26T00:53:45.201Z,99922.59
2019-01-26T00:56:14.648Z,99931.16
2019-01-26T00:58:43.934Z,99917.81
2019-01-26T01:01:13.330Z,99918.69
2019-01-26T01:03:42.630Z,99868.28
2019-01-26T01:06:12.195Z,99914.00
2019-01-26T01:08:41.494Z,99917.02
2019-01-26T01:11:11.163Z,99916.18
2019-01-26T01:13:40.460Z,99913.16
2019-01-26T01:16:09.930Z,99908.01
2019-01-26T01:18:39.234Z,99910.58
2019-01-26T01:21:08.746Z,99914.46
2019-01-26T01:23:38.061Z,99910.18
2019-01-26T01:26:26.467Z,99910.20
2019-01-26T01:28:56.108Z,99910.20
2019-01-26T01:31:25.413Z,99902.42
2019-01-26T01:33:54.950Z,99901.57
2019-01-26T01:37:03.560Z,99908.45
2019-01-26T01:39:33.254Z,99901.56
2019-01-26T01:42:02.540Z,99904.58
2019-01-26T01:44:32.284Z,99901.56
2019-01-26T01:47:01.635Z,99900.71
2019-01-26T01:49:31.171Z,99895.55
2019-01-26T01:57:24.147Z,99885.25
2019-01-26T01:59:53.659Z,99882.67
2019-01-26T02:02:22.978Z,99883.11
2019-01-26T02:04:52.277Z,99879.22
2019-01-26T02:07:21.607Z,99877.51
2019-01-26T02:09:51.040Z,99858.59
2019-01-26T02:12:20.431Z,99856.45
2019-01-26T02:14:49.868Z,99862.91
2019-01-26T02:17:19.162Z,99855.16
2019-01-26T02:20:07.418Z,99858.19
2019-01-26T02:22:36.774Z,99856.91
2019-01-26T02:25:06.237Z,99853.88
2019-01-26T02:27:35.647Z,99837.22
2019-01-26T02:30:44.298Z,99846.63
2019-01-26T02:33:13.681Z,99837.59
2019-01-26T02:35:42.982Z,99842.38
2019-01-26T02:40:47.544Z,99838.06
2019-01-26T02:43:16.875Z,99829.48
2019-01-26T02:45:46.173Z,99825.15
2019-01-26T02:48:15.442Z,99823.91
2019-01-26T02:51:03.779Z,99768.33
2019-01-26T02:53:33.080Z,99810.63
2019-01-26T02:58:57.648Z,99764.09
2019-01-26T03:01:27.075Z,99806.41
2019-01-26T03:03:56.393Z,99800.39
2019-01-26T03:06:25.952Z,99805.17
2019-01-26T03:08:55.252Z,99809.89
2019-01-26T03:11:24.649Z,99803.47
2019-01-26T03:13:53.886Z,99810.81
2019-01-26T03:16:23.371Z,99805.70
2019-01-26T03:18:52.664Z,99807.42
2019-01-26T03:21:22.240Z,99804.88
2019-01-26T03:23:51.623Z,99810.05
2019-01-26T03:26:21.465Z,99810.11
2019-01-26T03:28:50.742Z,99791.33
2019-01-26T03:31:20.409Z,99807.56
2019-01-26T03:33:49.685Z,99804.13
2019-01-26T03:36:19.290Z,99797.28
2019-01-26T03:38:48.649Z,99798.12
2019-01-26T03:41:18.361Z,99787.80
2019-01-26T03:43:47.659Z,99796.83
2019-01-26T03:46:17.223Z,99790.36
2019-01-26T03:48:46.510Z,99744.69
2019-01-26T03:51:16.041Z,99795.95
2019-01-26T03:53:45.343Z,99797.22
2019-01-26T03:56:14.778Z,99790.30
2019-01-26T03:59:03.372Z,99786.88
2019-01-26T04:01:32.759Z,99782.55
2019-01-26T04:04:02.275Z,99773.11
2019-01-26T04:06:50.839Z,99767.95
2019-01-26T04:09:20.182Z,99763.67
2019-01-26T04:12:08.501Z,99769.68
2019-01-26T04:14:38.176Z,99769.24
2019-01-26T04:17:07.514Z,99762.80
2019-01-26T04:19:36.998Z,99769.24
2019-01-26T04:22:06.282Z,99711.55
2019-01-26T04:24:35.970Z,99763.67
2019-01-26T04:27:05.237Z,99713.26
2019-01-26T04:29:34.895Z,99762.80
2019-01-26T04:32:04.171Z,99757.23
2019-01-26T04:34:33.803Z,99755.89
2019-01-26T04:37:03.145Z,99752.07
2019-01-26T04:39:32.626Z,99752.49
2019-01-26T04:42:02.076Z,99750.80
2019-01-26T04:44:31.423Z,99743.89
2019-01-26T04:47:00.821Z,99746.05
2019-01-26T04:49:30.243Z,99738.73
2019-01-26T04:51:59.529Z,99736.14
2019-01-26T04:54:29.195Z,99731.88
2019-01-26T04:56:58.519Z,99731.00
2019-01-26T04:59:28.187Z,99725.42
2019-01-26T05:01:57.533Z,99729.29
2019-01-26T05:04:27.019Z,99729.71
2019-01-26T05:06:56.342Z,99718.96
2019-01-26T05:09:25.823Z,99723.23
2019-01-26T05:11:55.129Z,99723.23
2019-01-26T05:14:24.566Z,99716.38
2019-01-26T05:16:53.920Z,99717.27
2019-01-26T05:19:23.255Z,99707.86
2019-01-26T05:21:52.547Z,99719.43
2019-01-26T05:24:21.971Z,99715.59
2019-01-26T05:26:51.304Z,99716.47
2019-01-26T05:29:20.649Z,99719.94
2019-01-26T05:31:49.953Z,99718.19
2019-01-26T05:34:19.263Z,99726.37
2019-01-26T05:36:48.618Z,99723.34
2019-01-26T05:39:17.954Z,99726.78
2019-01-26T05:41:47.245Z,99723.77
2019-01-26T05:44:16.712Z,99723.77
2019-01-26T05:46:46.010Z,99720.75
2019-01-26T05:49:15.302Z,99716.85
2019-01-26T05:51:44.593Z,99725.03
2019-01-26T05:54:32.831Z,99731.47
2019-01-26T05:57:02.233Z,99727.13
2019-01-26T05:59:31.680Z,99730.97
2019-01-26T06:02:00.981Z,99730.08
2019-01-26T06:04:30.360Z,99717.64
2019-01-26T06:06:59.766Z,99608.73
2019-01-26T06:09:29.244Z,99716.32
2019-01-26T06:14:54.170Z,99709.88
2019-01-26T06:17:23.540Z,99706.41
2019-01-26T06:19:53.232Z,99711.15
2019-01-26T06:22:22.522Z,99699.06
2019-01-26T06:24:52.033Z,99698.64
2019-01-26T06:27:21.381Z,99698.64
2019-01-26T06:29:50.944Z,99700.81
2019-01-26T06:32:20.292Z,99706.82
2019-01-26T06:34:49.604Z,99711.98
2019-01-26T06:37:18.908Z,99719.66
2019-01-26T06:39:48.277Z,99722.27
2019-01-26T06:42:17.583Z,99668.91
2019-01-26T06:44:47.242Z,99723.96
2019-01-26T06:47:16.527Z,99669.27
2019-01-26T06:49:45.970Z,99716.17
2019-01-26T06:52:35.391Z,99720.47
2019-01-26T06:55:06.458Z,99718.73
2019-01-26T06:57:35.817Z,99719.55
2019-01-26T07:00:07.307Z,99734.16
2019-01-26T07:02:36.650Z,99727.26
2019-01-26T07:05:25.714Z,99724.67
2019-01-26T07:07:55.231Z,99729.80
2019-01-26T07:10:24.527Z,99727.68
2019-01-26T07:12:54.609Z,99733.23
2019-01-26T07:15:23.935Z,99740.05
2019-01-26T07:17:53.351Z,99740.92
2019-01-26T07:20:22.643Z,99732.31
2019-01-26T07:22:52.409Z,99729.73
2019-01-26T07:25:21.691Z,99733.16
2019-01-26T07:27:51.196Z,99728.42
2019-01-26T07:30:40.243Z,99736.63
2019-01-26T07:33:09.547Z,99741.75
2019-01-26T07:35:39.262Z,99742.59
2019-01-26T07:38:13.529Z,99734.09
2019-01-26T07:40:40.088Z,99688.73
2019-01-26T07:43:10.300Z,99744.28
2019-01-26T07:45:51.851Z,99736.93
2019-01-26T07:48:21.179Z,99733.04
2019-01-26T07:50:50.709Z,99750.20
2019-01-26T07:53:20.003Z,99737.32
2019-01-26T07:55:49.633Z,99739.47
2019-01-26T07:58:18.969Z,99745.92
2019-01-26T08:00:48.443Z,99744.16
2019-01-26T08:03:17.728Z,99692.12
2019-01-26T08:05:47.394Z,99749.75
2019-01-26T08:08:16.682Z,99740.70
2019-01-26T08:10:46.284Z,99738.14
2019-01-26T08:13:15.567Z,99738.14
2019-01-26T08:15:45.143Z,99748.87
2019-01-26T08:18:14.442Z,99746.70
2019-01-26T08:20:44.127Z,99745.86
2019-01-26T08:23:13.418Z,99739.84
2019-01-26T08:28:31.335Z,99742.81
2019-01-26T08:31:00.644Z,99688.56
2019-01-26T08:33:30.283Z,99741.92
2019-01-26T08:35:59.576Z,99622.71
2019-01-26T08:38:29.097Z,99743.22
2019-01-26T08:40:58.452Z,99738.06
2019-01-26T08:43:28.005Z,99744.86
2019-01-26T08:45:57.358Z,99743.57
2019-01-26T08:48:31.166Z,99733.24
2019-01-26T08:50:57.976Z,99735.79
2019-01-26T08:53:27.292Z,99740.06
2019-01-26T08:55:56.598Z,99668.77
2019-01-26T08:58:26.053Z,99749.50
2019-01-26T09:01:14.503Z,99737.89
2019-01-26T09:04:02.700Z,99733.53
2019-01-26T09:06:41.043Z,99735.23
2019-01-26T09:09:12.470Z,99733.45
2019-01-26T09:11:41.962Z,99731.31
2019-01-26T09:14:11.366Z,99739.02
2019-01-26T09:16:40.844Z,99727.41
2019-01-26T09:19:10.212Z,99738.05
2019-01-26T09:21:39.603Z,99747.45
2019-01-26T09:24:09.030Z,99745.28
2019-01-26T09:26:38.344Z,99744.75
2019-01-26T09:29:07.751Z,99749.41
2019-01-26T09:31:37.099Z,99746.78
2019-01-26T09:34:06.975Z,99741.57
2019-01-26T09:36:36.272Z,99748.38
2019-01-26T09:42:15.391Z,99751.31
2019-01-26T09:44:45.109Z,99747.38
2019-01-26T09:47:14.435Z,99748.14
2019-01-26T09:49:44.140Z,99744.22
2019-01-26T09:52:13.450Z,99745.56
2019-01-26T09:54:42.822Z,99739.98
2019-01-26T09:57:12.134Z,99747.64
2019-01-26T09:59:41.428Z,99744.22
2019-01-26T10:02:10.742Z,99740.30
2019-01-26T10:04:40.108Z,99731.97
2019-01-26T10:07:09.457Z,99738.07
2019-01-26T10:09:57.730Z,99726.37
2019-01-26T10:12:27.048Z,99726.80
2019-01-26T10:14:56.334Z,99732.85
2019-01-26T10:17:25.780Z,99722.03
2019-01-26T10:19:55.059Z,99724.85
2019-01-26T10:22:25.626Z,99718.80
2019-01-26T10:24:54.940Z,99724.40
2019-01-26T10:27:24.246Z,99718.80
2019-01-26T10:29:53.622Z,99722.29
2019-01-26T10:32:23.044Z,99715.02
2019-01-26T10:34:52.347Z,99723.63
2019-01-26T10:37:25.854Z,99715.80
2019-01-26T10:42:45.082Z,99719.93
2019-01-26T10:45:14.490Z,99711.77
2019-01-26T10:47:43.809Z,99721.25
2019-01-26T10:50:13.522Z,99713.91
2019-01-26T10:52:42.846Z,99691.54
2019-01-26T10:55:12.503Z,99715.44
2019-01-26T10:57:41.860Z,99667.19
2019-01-26T11:00:14.528Z,99717.81
2019-01-26T11:02:44.292Z,99618.44
2019-01-26T11:05:13.811Z,99715.22
2019-01-26T11:07:43.211Z,99714.76
2019-01-26T11:10:13.159Z,99709.16
2019-01-26T11:12:42.783Z,99708.20
2019-01-26T11:15:12.224Z,99704.70
2019-01-26T11:17:41.587Z,99702.95
2019-01-26T11:20:11.413Z,99693.66
2019-01-26T11:22:41.134Z,99696.22
2019-01-26T11:25:10.960Z,99689.75
2019-01-26T11:27:40.608Z,99685.93
2019-01-26T11:30:10.782Z,99697.06
2019-01-26T11:32:40.339Z,99683.23
2019-01-26T11:35:10.865Z,99682.22
2019-01-26T11:37:40.360Z,99676.16
2019-01-26T11:40:20.048Z,99632.95
2019-01-26T11:43:08.309Z,99661.75
2019-01-26T11:48:40.326Z,99663.34
2019-01-26T11:51:28.742Z,99664.61
2019-01-26T11:53:58.119Z,99660.70
2019-01-26T11:56:32.726Z,99659.38
2019-01-26T11:59:02.059Z,99657.06
2019-01-26T12:01:50.253Z,99657.93
2019-01-26T12:04:26.760Z,99651.77
2019-01-26T12:07:15.078Z,99653.00
2019-01-26T12:09:44.931Z,99653.46
2019-01-26T12:12:33.189Z,99556.63
2019-01-26T12:15:02.475Z,99647.58
2019-01-26T12:17:31.982Z,99640.52
2019-01-26T12:20:01.280Z,99637.01
2019-01-26T12:22:30.763Z,99641.84
2019-01-26T12:25:00.184Z,99633.53
2019-01-26T12:27:29.687Z,99638.98
2019-01-26T12:29:59.058Z,99633.67
2019-01-26T12:32:47.393Z,99636.66
2019-01-26T12:35:17.052Z,99622.73
2019-01-26T12:37:46.330Z,99611.20
2019-01-26T12:40:15.402Z,99610.70
2019-01-26T12:42:44.813Z,99609.08
2019-01-26T12:45:17.159Z,99612.44
2019-01-26T12:47:46.443Z,99593.61
2019-01-26T12:50:36.218Z,99618.08
2019-01-26T12:53:17.415Z,99619.73
2019-01-26T12:55:46.784Z,99539.25
2019-01-26T12:58:16.217Z,99611.73
2019-01-26T13:00:45.511Z,99607.39
2019-01-26T13:03:15.024Z,99613.36
2019-01-26T13:05:44.316Z,99617.71
2019-01-26T13:08:13.699Z,99618.91
2019-01-26T13:11:04.640Z,99611.01
2019-01-26T13:13:34.043Z,99614.86
2019-01-26T13:16:03.327Z,99614.72
2019-01-26T13:18:32.817Z,99621.20
2019-01-26T13:21:02.261Z,99607.49
2019-01-26T13:23:31.576Z,99611.87
2019-01-26T13:26:01.030Z,99608.48
2019-01-26T13:31:05.096Z,99618.28
2019-01-26T13:33:34.477Z,99617.55
2019-01-26T13:36:03.858Z,99620.60
2019-01-26T13:38:33.481Z,99622.36
2019-01-26T13:41:02.782Z,99583.58
2019-01-26T13:43:33.034Z,99628.77
2019-01-26T13:46:02.394Z,99623.59
2019-01-26T13:48:31.794Z,99624.39
2019-01-26T13:51:01.167Z,99592.95
2019-01-26T13:53:30.505Z,99617.48
2019-01-26T13:55:59.812Z,99618.34
2019-01-26T13:58:29.371Z,99622.63
2019-01-26T14:00:58.708Z,99631.16
2019-01-26T14:03:28.380Z,99620.47
2019-01-26T14:05:57.682Z,99576.81
2019-01-26T14:08:27.159Z,99620.93
2019-01-26T14:10:56.588Z,99630.59
2019-01-26T14:13:26.049Z,99639.69
2019-01-26T14:15:55.365Z,99629.39
2019-01-26T14:18:24.840Z,99627.33
2019-01-26T14:20:54.136Z,99618.83
2019-01-26T14:23:24.058Z,99618.39
2019-01-26T14:25:53.369Z,99616.30
2019-01-26T14:28:22.969Z,99611.98
2019-01-26T14:30:56.348Z,99610.33
2019-01-26T14:33:25.683Z,99615.47
2019-01-26T14:35:55.266Z,99610.30
2019-01-26T14:38:24.573Z,99602.63
2019-01-26T14:40:54.043Z,99604.36
2019-01-26T14:43:23.359Z,99603.55
2019-01-26T14:45:52.992Z,99601.83
2019-01-26T14:48:22.343Z,99607.84
2019-01-26T14:50:51.923Z,99602.72
2019-01-26T14:53:21.258Z,99522.81
2019-01-26T14:55:50.834Z,99607.95
2019-01-26T14:58:20.143Z,99606.27
2019-01-26T15:00:49.504Z,99595.02
2019-01-26T15:03:18.829Z,99598.97
2019-01-26T15:05:48.308Z,99598.91
2019-01-26T15:08:17.631Z,99595.09
2019-01-26T15:10:47.109Z,99595.98
2019-01-26T15:13:16.549Z,99591.70
2019-01-26T15:15:45.997Z,99587.39
2019-01-26T15:18:15.316Z,99586.09
2019-01-26T15:20:44.934Z,99593.05
2019-01-26T15:23:34.673Z,99592.56
2019-01-26T15:26:04.100Z,99592.62
2019-01-26T15:28:33.693Z,99594.81
2019-01-26T15:31:02.977Z,99597.86
2019-01-26T15:33:51.348Z,99596.50
2019-01-26T15:36:20.886Z,99550.61
2019-01-26T15:38:50.222Z,99603.86
2019-01-26T15:41:19.891Z,99596.16
2019-01-26T15:43:49.174Z,99583.69
2019-01-26T15:46:19.098Z,99580.70
2019-01-26T15:48:48.425Z,99579.47
2019-01-26T15:51:17.941Z,99577.28
2019-01-26T15:53:47.242Z,99572.11
2019-01-26T15:56:16.908Z,99569.13
2019-01-26T15:58:46.234Z,99573.09
2019-01-26T16:01:15.950Z,99570.94
2019-01-26T16:03:45.298Z,99570.54
2019-01-26T16:06:14.749Z,99567.52
2019-01-26T16:08:44.069Z,99518.66
2019-01-26T16:11:13.644Z,99571.00
2019-01-26T16:13:54.382Z,99567.52
2019-01-26T16:16:23.901Z,99563.64
2019-01-26T16:18:53.206Z,99566.32
2019-01-26T16:21:22.577Z,99570.66
2019-01-26T16:23:51.899Z,99566.32
2019-01-26T16:26:21.378Z,99559.45
2019-01-26T16:28:50.706Z,99554.25
2019-01-26T16:31:20.008Z,99561.61
2019-01-26T16:33:49.348Z,99561.21
2019-01-26T16:36:18.741Z,99556.50
2019-01-26T16:38:48.047Z,99550.09
2019-01-26T16:41:17.346Z,99546.21
2019-01-26T16:43:46.631Z,99545.32
2019-01-26T16:46:15.924Z,99546.61
2019-01-26T16:51:52.607Z,99527.98
2019-01-26T16:54:22.425Z,99549.27
2019-01-26T16:56:51.714Z,99546.67
2019-01-26T16:59:21.296Z,99547.56
2019-01-26T17:01:50.597Z,99544.15
2019-01-26T17:04:39.383Z,99546.73
2019-01-26T17:07:09.200Z,99545.44
2019-01-26T17:09:38.505Z,99553.63
2019-01-26T17:12:08.004Z,99551.97
2019-01-26T17:14:37.333Z,99559.66
2019-01-26T17:17:06.901Z,99564.77
2019-01-26T17:19:36.180Z,99563.98
2019-01-26T17:22:24.942Z,99558.80
2019-01-26T17:24:54.538Z,99546.73
2019-01-26T17:27:23.843Z,99555.35
2019-01-26T17:29:53.491Z,99552.80
2019-01-26T17:32:22.779Z,99549.32
2019-01-26T17:37:27.069Z,99540.70
2019-01-26T17:39:56.428Z,99545.02
2019-01-26T17:42:26.055Z,99542.45
2019-01-26T17:44:55.344Z,99534.70
2019-01-26T17:47:25.031Z,99538.17
2019-01-26T17:49:54.343Z,99527.83
2019-01-26T17:52:24.074Z,99531.34
2019-01-26T17:54:53.362Z,99524.91
2019-01-26T17:57:23.381Z,99519.37
2019-01-26T17:59:52.684Z,99461.29
2019-01-26T18:02:22.243Z,99514.97
2019-01-26T18:04:51.543Z,99411.50
2019-01-26T18:07:21.390Z,99495.20
2019-01-26T18:09:50.690Z,99505.42
2019-01-26T18:12:20.416Z,99503.80
2019-01-26T18:14:49.794Z,99457.84
2019-01-26T18:17:19.160Z,99499.48
2019-01-26T18:19:48.487Z,99450.13
2019-01-26T18:22:18.204Z,99500.25
2019-01-26T18:24:47.527Z,99496.44
2019-01-26T18:27:17.050Z,99496.87
2019-01-26T18:29:46.336Z,99489.11
2019-01-26T18:32:16.062Z,99487.79
2019-01-26T18:34:45.374Z,99482.34
2019-01-26T18:37:15.044Z,99486.53
2019-01-26T18:39:44.348Z,99484.73
2019-01-26T18:42:13.966Z,99480.92
2019-01-26T18:44:43.268Z,99426.41
2019-01-26T18:47:12.836Z,99480.06
2019-01-26T18:49:42.142Z,99440.55
2019-01-26T18:52:11.898Z,99471.84
2019-01-26T18:54:41.191Z,99481.36
2019-01-26T18:59:45.311Z,99469.29
2019-01-26T19:02:14.662Z,99479.56
2019-01-26T19:04:48.596Z,99471.81
2019-01-26T19:07:17.910Z,99472.70
2019-01-26T19:09:47.354Z,99479.63
2019-01-26T19:12:16.678Z,99477.05
2019-01-26T19:14:46.213Z,99464.55
2019-01-26T19:17:15.525Z,99473.97
2019-01-26T19:19:45.068Z,99475.29
2019-01-26T19:22:33.309Z,99468.36
2019-01-26T19:25:02.707Z,99479.50
2019-01-26T19:27:32.240Z,99471.02
2019-01-26T19:30:01.558Z,99482.22
2019-01-26T19:32:31.072Z,99477.05
2019-01-26T19:35:19.559Z,99420.84
2019-01-26T19:37:48.920Z,99473.53
2019-01-26T19:40:20.059Z,99464.89
2019-01-26T19:42:49.385Z,99395.92
2019-01-26T19:45:20.326Z,99455.44
2019-01-26T19:50:44.979Z,99445.56
2019-01-26T19:55:48.886Z,99439.03
2019-01-26T19:58:18.304Z,99441.62
2019-01-26T20:00:47.715Z,99435.15
2019-01-26T20:03:17.526Z,99433.89
2019-01-26T20:05:48.143Z,99436.44
2019-01-26T20:08:18.036Z,99424.81
2019-01-26T20:13:22.443Z,99425.20
2019-01-26T20:15:51.801Z,99410.52
2019-01-26T20:18:21.145Z,99426.03
2019-01-26T20:21:09.410Z,99406.67
2019-01-26T20:23:38.874Z,99410.52
2019-01-26T20:26:08.191Z,99402.77
2019-01-26T20:28:37.667Z,99403.62
2019-01-26T20:31:06.934Z,99399.28
2019-01-26T20:33:36.410Z,99393.64
2019-01-26T20:36:05.796Z,99390.59
2019-01-26T20:38:35.324Z,99396.63
2019-01-26T20:41:04.734Z,99335.63
2019-01-26T20:43:34.424Z,99393.25
2019-01-26T20:46:03.783Z,99371.84
2019-01-26T20:48:33.273Z,99391.89
2019-01-26T20:51:24.971Z,99397.45
2019-01-26T20:53:52.661Z,99387.08
2019-01-26T20:56:41.006Z,99383.70
2019-01-26T20:59:10.497Z,99370.70
2019-01-26T21:01:39.819Z,99356.26
2019-01-26T21:04:09.279Z,99373.64
2019-01-26T21:06:38.595Z,99335.28
2019-01-26T21:09:09.510Z,99367.19
2019-01-26T21:11:38.863Z,99342.97
2019-01-26T21:14:08.169Z,99364.59
2019-01-26T21:16:37.565Z,99331.33
2019-01-26T21:19:07.011Z,99358.45
2019-01-26T21:21:36.285Z,99340.56
2019-01-26T21:24:45.055Z,99355.05
2019-01-26T21:27:14.378Z,99347.25
2019-01-26T21:29:43.684Z,99341.64
2019-01-26T21:32:13.359Z,99287.63
2019-01-26T21:34:42.774Z,99330.80
2019-01-26T21:37:12.121Z,99304.80
2019-01-26T21:42:30.102Z,99324.69
2019-01-26T21:44:59.418Z,99317.80
2019-01-26T21:47:28.995Z,99310.03
2019-01-26T21:49:58.316Z,99308.31
2019-01-26T21:52:28.074Z,99305.69
2019-01-26T21:54:57.436Z,99304.78
2019-01-26T21:57:26.941Z,99296.16
2019-01-26T21:59:56.255Z,99301.33
2019-01-26T22:02:25.803Z,99301.73
2019-01-26T22:05:14.032Z,99296.16
2019-01-26T22:07:43.483Z,99294.33
2019-01-26T22:10:35.060Z,99276.69
2019-01-26T22:13:14.823Z,99272.34
2019-01-26T22:15:44.123Z,99262.69
2019-01-26T22:18:13.553Z,99266.73
2019-01-26T22:20:42.858Z,99260.70
2019-01-26T22:23:12.278Z,99261.59
2019-01-26T22:28:16.134Z,99267.59
2019-01-26T22:30:45.551Z,99266.30
2019-01-26T22:33:33.985Z,99268.42
2019-01-26T22:36:03.304Z,99258.07
2019-01-26T22:38:32.650Z,99260.58
2019-01-26T22:41:02.007Z,99257.13
2019-01-26T22:43:31.399Z,99261.83
2019-01-26T22:46:00.688Z,99262.22
2019-01-26T22:48:29.970Z,99249.28
2019-01-26T22:50:59.282Z,99249.33
2019-01-26T22:53:28.680Z,99236.43
2019-01-26T22:55:58.035Z,99239.80
2019-01-26T22:58:27.350Z,99232.47
2019-01-26T23:01:18.738Z,99231.17
2019-01-26T23:04:25.568Z,99226.64
2019-01-26T23:07:32.923Z,99226.79
2019-01-26T23:10:23.912Z,99219.11
2019-01-26T23:13:31.212Z,99231.57
2019-01-26T23:16:38.515Z,99224.20
2019-01-26T23:19:28.894Z,99224.13
2019-01-26T23:22:36.194Z,99225.02
2019-01-26T23:25:49.722Z,99188.08
2019-01-26T23:31:36.093Z,99211.61
2019-01-26T23:34:44.739Z,99196.91
2019-01-26T23:37:14.046Z,99198.17
2019-01-26T23:39:43.414Z,99201.18
2019-01-26T23:42:12.702Z,99104.61
2019-01-26T23:44:42.168Z,99203.26
2019-01-26T23:47:11.480Z,99195.92
2019-01-26T23:49:40.980Z,99197.12
2019-01-26T23:52:10.308Z,99192.04
2019-01-26T23:54:39.786Z,99198.91
2019-01-26T23:57:09.090Z,99198.91
2019-01-26T23:59:38.643Z,99191.14
